sensor_id;sensor_type;location;lat;lon;timestamp;P1;durP1;ratioP1;P2;durP2;ratioP2
22034;SDS011;11181;51.002;4.356;2023-12-14T00:00:08;26.20;;;13.13;;
22034;SDS011;11181;51.002;4.356;2023-12-14T00:02:35;34.57;;;16.07;;
22034;SDS011;11181;51.002;4.356;2023-12-14T00:05:04;25.47;;;13.33;;
22034;SDS011;11181;51.002;4.356;2023-12-14T00:07:31;32.27;;;15.90;;
22034;SDS011;11181;51.002;4.356;2023-12-14T00:09:58;31.77;;;14.47;;
22034;SDS011;11181;51.002;4.356;2023-12-14T00:12:25;30.27;;;15.40;;
22034;SDS011;11181;51.002;4.356;2023-12-14T00:14:51;30.90;;;15.43;;
22034;SDS011;11181;51.002;4.356;2023-12-14T00:17:18;31.70;;;14.93;;
22034;SDS011;11181;51.002;4.356;2023-12-14T00:19:45;30.30;;;14.90;;
22034;SDS011;11181;51.002;4.356;2023-12-14T00:22:13;34.60;;;16.27;;
22034;SDS011;11181;51.002;4.356;2023-12-14T00:24:41;36.63;;;17.07;;
22034;SDS011;11181;51.002;4.356;2023-12-14T00:27:08;33.03;;;16.10;;
22034;SDS011;11181;51.002;4.356;2023-12-14T00:29:35;30.90;;;15.63;;
22034;SDS011;11181;51.002;4.356;2023-12-14T00:32:01;30.40;;;16.57;;
22034;SDS011;11181;51.002;4.356;2023-12-14T00:34:29;32.37;;;17.07;;
22034;SDS011;11181;51.002;4.356;2023-12-14T00:36:56;28.90;;;15.30;;
22034;SDS011;11181;51.002;4.356;2023-12-14T00:39:24;28.40;;;15.47;;
22034;SDS011;11181;51.002;4.356;2023-12-14T00:41:51;39.00;;;18.03;;
22034;SDS011;11181;51.002;4.356;2023-12-14T00:44:18;35.47;;;16.90;;
22034;SDS011;11181;51.002;4.356;2023-12-14T00:46:45;34.70;;;16.67;;
22034;SDS011;11181;51.002;4.356;2023-12-14T00:49:11;31.40;;;15.60;;
22034;SDS011;11181;51.002;4.356;2023-12-14T00:51:38;36.07;;;18.50;;
22034;SDS011;11181;51.002;4.356;2023-12-14T00:54:05;33.63;;;17.03;;
22034;SDS011;11181;51.002;4.356;2023-12-14T00:56:34;33.97;;;16.07;;
22034;SDS011;11181;51.002;4.356;2023-12-14T00:59:00;34.67;;;17.10;;
22034;SDS011;11181;51.002;4.356;2023-12-14T01:01:27;36.60;;;17.03;;
22034;SDS011;11181;51.002;4.356;2023-12-14T01:03:54;33.17;;;18.10;;
22034;SDS011;11181;51.002;4.356;2023-12-14T01:06:21;35.73;;;18.23;;
22034;SDS011;11181;51.002;4.356;2023-12-14T01:08:48;32.17;;;16.63;;
22034;SDS011;11181;51.002;4.356;2023-12-14T01:11:15;28.37;;;15.07;;
22034;SDS011;11181;51.002;4.356;2023-12-14T01:13:43;31.13;;;15.43;;
22034;SDS011;11181;51.002;4.356;2023-12-14T01:16:10;24.43;;;13.43;;
22034;SDS011;11181;51.002;4.356;2023-12-14T01:18:37;21.13;;;11.80;;
22034;SDS011;11181;51.002;4.356;2023-12-14T01:21:04;21.40;;;11.23;;
22034;SDS011;11181;51.002;4.356;2023-12-14T01:23:31;23.00;;;11.80;;
22034;SDS011;11181;51.002;4.356;2023-12-14T01:25:58;21.63;;;12.60;;
22034;SDS011;11181;51.002;4.356;2023-12-14T01:28:24;29.37;;;13.30;;
22034;SDS011;11181;51.002;4.356;2023-12-14T01:30:53;23.23;;;11.90;;
22034;SDS011;11181;51.002;4.356;2023-12-14T01:33:22;25.27;;;13.17;;
22034;SDS011;11181;51.002;4.356;2023-12-14T01:35:48;24.47;;;11.77;;
22034;SDS011;11181;51.002;4.356;2023-12-14T01:38:15;26.73;;;13.57;;
22034;SDS011;11181;51.002;4.356;2023-12-14T01:40:42;26.27;;;12.83;;
22034;SDS011;11181;51.002;4.356;2023-12-14T01:43:09;26.37;;;13.13;;
22034;SDS011;11181;51.002;4.356;2023-12-14T01:45:36;25.10;;;13.37;;
22034;SDS011;11181;51.002;4.356;2023-12-14T01:48:05;31.43;;;14.40;;
22034;SDS011;11181;51.002;4.356;2023-12-14T01:50:32;25.07;;;13.53;;
22034;SDS011;11181;51.002;4.356;2023-12-14T01:52:58;23.00;;;12.80;;
22034;SDS011;11181;51.002;4.356;2023-12-14T01:55:25;27.77;;;13.53;;
22034;SDS011;11181;51.002;4.356;2023-12-14T01:57:52;32.80;;;15.23;;
22034;SDS011;11181;51.002;4.356;2023-12-14T02:00:21;27.27;;;13.83;;
22034;SDS011;11181;51.002;4.356;2023-12-14T02:02:55;25.80;;;13.53;;
22034;SDS011;11181;51.002;4.356;2023-12-14T02:05:23;27.97;;;13.43;;
22034;SDS011;11181;51.002;4.356;2023-12-14T02:07:50;29.63;;;14.43;;
22034;SDS011;11181;51.002;4.356;2023-12-14T02:10:17;25.13;;;13.27;;
22034;SDS011;11181;51.002;4.356;2023-12-14T02:12:44;28.00;;;14.53;;
22034;SDS011;11181;51.002;4.356;2023-12-14T02:15:11;27.00;;;15.03;;
22034;SDS011;11181;51.002;4.356;2023-12-14T02:17:38;24.50;;;12.57;;
22034;SDS011;11181;51.002;4.356;2023-12-14T02:20:05;26.90;;;13.70;;
22034;SDS011;11181;51.002;4.356;2023-12-14T02:22:35;26.80;;;14.23;;
22034;SDS011;11181;51.002;4.356;2023-12-14T02:25:15;25.83;;;13.10;;
22034;SDS011;11181;51.002;4.356;2023-12-14T02:27:42;23.33;;;12.17;;
22034;SDS011;11181;51.002;4.356;2023-12-14T02:30:09;26.90;;;14.17;;
22034;SDS011;11181;51.002;4.356;2023-12-14T02:32:37;30.07;;;14.53;;
22034;SDS011;11181;51.002;4.356;2023-12-14T02:35:04;30.87;;;15.80;;
22034;SDS011;11181;51.002;4.356;2023-12-14T02:37:32;25.73;;;13.20;;
22034;SDS011;11181;51.002;4.356;2023-12-14T02:40:00;31.43;;;15.73;;
22034;SDS011;11181;51.002;4.356;2023-12-14T02:42:28;30.30;;;14.47;;
22034;SDS011;11181;51.002;4.356;2023-12-14T02:44:55;25.93;;;14.93;;
22034;SDS011;11181;51.002;4.356;2023-12-14T02:47:22;30.63;;;15.33;;
22034;SDS011;11181;51.002;4.356;2023-12-14T02:49:49;27.20;;;13.47;;
22034;SDS011;11181;51.002;4.356;2023-12-14T02:52:16;26.27;;;14.07;;
22034;SDS011;11181;51.002;4.356;2023-12-14T02:54:43;22.43;;;12.80;;
22034;SDS011;11181;51.002;4.356;2023-12-14T02:57:11;23.67;;;13.20;;
22034;SDS011;11181;51.002;4.356;2023-12-14T02:59:38;21.87;;;11.90;;
22034;SDS011;11181;51.002;4.356;2023-12-14T03:02:05;19.40;;;11.50;;
22034;SDS011;11181;51.002;4.356;2023-12-14T03:04:32;21.10;;;10.93;;
22034;SDS011;11181;51.002;4.356;2023-12-14T03:06:59;25.20;;;11.80;;
22034;SDS011;11181;51.002;4.356;2023-12-14T03:09:27;26.83;;;13.27;;
22034;SDS011;11181;51.002;4.356;2023-12-14T03:11:54;21.43;;;11.73;;
22034;SDS011;11181;51.002;4.356;2023-12-14T03:14:22;25.10;;;13.20;;
22034;SDS011;11181;51.002;4.356;2023-12-14T03:16:49;21.43;;;12.63;;
22034;SDS011;11181;51.002;4.356;2023-12-14T03:19:16;23.03;;;13.23;;
22034;SDS011;11181;51.002;4.356;2023-12-14T03:21:44;23.57;;;14.23;;
22034;SDS011;11181;51.002;4.356;2023-12-14T03:24:11;23.13;;;11.43;;
22034;SDS011;11181;51.002;4.356;2023-12-14T03:26:38;19.30;;;11.70;;
22034;SDS011;11181;51.002;4.356;2023-12-14T03:29:05;22.50;;;11.07;;
22034;SDS011;11181;51.002;4.356;2023-12-14T03:31:34;19.37;;;10.77;;
22034;SDS011;11181;51.002;4.356;2023-12-14T03:34:01;18.93;;;10.53;;
22034;SDS011;11181;51.002;4.356;2023-12-14T03:36:28;17.43;;;10.10;;
22034;SDS011;11181;51.002;4.356;2023-12-14T03:38:55;20.77;;;11.73;;
22034;SDS011;11181;51.002;4.356;2023-12-14T03:41:22;22.70;;;10.97;;
22034;SDS011;11181;51.002;4.356;2023-12-14T03:43:49;20.03;;;11.77;;
22034;SDS011;11181;51.002;4.356;2023-12-14T03:46:16;19.40;;;11.87;;
22034;SDS011;11181;51.002;4.356;2023-12-14T03:48:44;21.37;;;10.97;;
22034;SDS011;11181;51.002;4.356;2023-12-14T03:51:11;20.87;;;12.20;;
22034;SDS011;11181;51.002;4.356;2023-12-14T03:53:38;21.60;;;12.37;;
22034;SDS011;11181;51.002;4.356;2023-12-14T03:56:05;21.77;;;12.10;;
22034;SDS011;11181;51.002;4.356;2023-12-14T03:58:32;23.83;;;11.50;;
22034;SDS011;11181;51.002;4.356;2023-12-14T04:00:59;21.07;;;11.83;;
22034;SDS011;11181;51.002;4.356;2023-12-14T04:03:27;17.57;;;12.00;;
22034;SDS011;11181;51.002;4.356;2023-12-14T04:05:55;18.67;;;10.30;;
22034;SDS011;11181;51.002;4.356;2023-12-14T04:08:22;18.73;;;10.30;;
22034;SDS011;11181;51.002;4.356;2023-12-14T04:10:48;20.30;;;11.17;;
22034;SDS011;11181;51.002;4.356;2023-12-14T04:13:15;15.77;;;9.97;;
22034;SDS011;11181;51.002;4.356;2023-12-14T04:15:42;17.73;;;11.37;;
22034;SDS011;11181;51.002;4.356;2023-12-14T04:18:09;17.37;;;10.40;;
22034;SDS011;11181;51.002;4.356;2023-12-14T04:20:36;17.27;;;10.70;;
22034;SDS011;11181;51.002;4.356;2023-12-14T04:23:05;17.63;;;11.30;;
22034;SDS011;11181;51.002;4.356;2023-12-14T04:25:31;16.17;;;9.77;;
22034;SDS011;11181;51.002;4.356;2023-12-14T04:27:58;18.43;;;11.33;;
22034;SDS011;11181;51.002;4.356;2023-12-14T04:30:25;21.00;;;11.77;;
22034;SDS011;11181;51.002;4.356;2023-12-14T04:32:52;21.57;;;13.07;;
22034;SDS011;11181;51.002;4.356;2023-12-14T04:35:19;19.47;;;11.80;;
22034;SDS011;11181;51.002;4.356;2023-12-14T04:37:47;15.70;;;10.27;;
22034;SDS011;11181;51.002;4.356;2023-12-14T04:40:15;16.00;;;10.37;;
22034;SDS011;11181;51.002;4.356;2023-12-14T04:42:42;19.87;;;11.83;;
22034;SDS011;11181;51.002;4.356;2023-12-14T04:45:09;15.43;;;10.63;;
22034;SDS011;11181;51.002;4.356;2023-12-14T04:47:38;15.33;;;10.47;;
22034;SDS011;11181;51.002;4.356;2023-12-14T04:50:05;17.07;;;11.00;;
22034;SDS011;11181;51.002;4.356;2023-12-14T04:52:32;17.57;;;10.83;;
22034;SDS011;11181;51.002;4.356;2023-12-14T04:54:59;15.50;;;10.57;;
22034;SDS011;11181;51.002;4.356;2023-12-14T04:57:27;18.47;;;11.03;;
22034;SDS011;11181;51.002;4.356;2023-12-14T04:59:54;16.57;;;10.50;;
22034;SDS011;11181;51.002;4.356;2023-12-14T05:02:21;15.10;;;10.27;;
22034;SDS011;11181;51.002;4.356;2023-12-14T05:04:48;16.57;;;10.90;;
22034;SDS011;11181;51.002;4.356;2023-12-14T05:07:15;17.47;;;10.97;;
22034;SDS011;11181;51.002;4.356;2023-12-14T05:09:42;15.07;;;10.20;;
22034;SDS011;11181;51.002;4.356;2023-12-14T05:12:09;14.87;;;10.83;;
22034;SDS011;11181;51.002;4.356;2023-12-14T05:14:37;16.07;;;11.40;;
22034;SDS011;11181;51.002;4.356;2023-12-14T05:17:04;18.03;;;10.87;;
22034;SDS011;11181;51.002;4.356;2023-12-14T05:19:32;14.93;;;10.03;;
22034;SDS011;11181;51.002;4.356;2023-12-14T05:21:59;15.63;;;10.10;;
22034;SDS011;11181;51.002;4.356;2023-12-14T05:24:26;13.90;;;10.70;;
22034;SDS011;11181;51.002;4.356;2023-12-14T05:26:53;14.93;;;10.83;;
22034;SDS011;11181;51.002;4.356;2023-12-14T05:29:20;17.63;;;11.27;;
22034;SDS011;11181;51.002;4.356;2023-12-14T05:31:51;20.03;;;11.80;;
22034;SDS011;11181;51.002;4.356;2023-12-14T05:34:17;16.43;;;10.33;;
22034;SDS011;11181;51.002;4.356;2023-12-14T05:36:44;16.17;;;10.43;;
22034;SDS011;11181;51.002;4.356;2023-12-14T05:39:11;17.40;;;11.37;;
22034;SDS011;11181;51.002;4.356;2023-12-14T05:41:39;18.90;;;10.43;;
22034;SDS011;11181;51.002;4.356;2023-12-14T05:44:07;18.43;;;9.67;;
22034;SDS011;11181;51.002;4.356;2023-12-14T05:46:34;15.60;;;10.40;;
22034;SDS011;11181;51.002;4.356;2023-12-14T05:49:03;15.53;;;10.20;;
22034;SDS011;11181;51.002;4.356;2023-12-14T05:51:30;14.83;;;10.17;;
22034;SDS011;11181;51.002;4.356;2023-12-14T05:53:58;16.13;;;9.90;;
22034;SDS011;11181;51.002;4.356;2023-12-14T05:56:25;16.90;;;10.27;;
22034;SDS011;11181;51.002;4.356;2023-12-14T05:58:52;18.73;;;11.17;;
22034;SDS011;11181;51.002;4.356;2023-12-14T06:01:19;16.37;;;10.43;;
22034;SDS011;11181;51.002;4.356;2023-12-14T06:03:46;17.63;;;11.30;;
22034;SDS011;11181;51.002;4.356;2023-12-14T06:06:15;16.23;;;10.60;;
22034;SDS011;11181;51.002;4.356;2023-12-14T06:08:42;22.70;;;10.77;;
22034;SDS011;11181;51.002;4.356;2023-12-14T06:11:09;19.30;;;10.70;;
22034;SDS011;11181;51.002;4.356;2023-12-14T06:13:36;17.97;;;10.33;;
22034;SDS011;11181;51.002;4.356;2023-12-14T06:16:04;18.27;;;11.60;;
22034;SDS011;11181;51.002;4.356;2023-12-14T06:18:33;17.63;;;10.90;;
22034;SDS011;11181;51.002;4.356;2023-12-14T06:21:00;17.83;;;11.53;;
22034;SDS011;11181;51.002;4.356;2023-12-14T06:23:28;19.73;;;11.57;;
22034;SDS011;11181;51.002;4.356;2023-12-14T06:25:55;16.77;;;10.80;;
22034;SDS011;11181;51.002;4.356;2023-12-14T06:28:23;18.73;;;11.50;;
22034;SDS011;11181;51.002;4.356;2023-12-14T06:30:50;19.60;;;11.30;;
22034;SDS011;11181;51.002;4.356;2023-12-14T06:33:17;16.63;;;11.40;;
22034;SDS011;11181;51.002;4.356;2023-12-14T06:35:44;15.37;;;9.90;;
22034;SDS011;11181;51.002;4.356;2023-12-14T06:38:10;16.90;;;9.93;;
22034;SDS011;11181;51.002;4.356;2023-12-14T06:40:39;15.57;;;10.43;;
22034;SDS011;11181;51.002;4.356;2023-12-14T06:43:06;16.10;;;10.37;;
22034;SDS011;11181;51.002;4.356;2023-12-14T06:45:32;16.80;;;10.70;;
22034;SDS011;11181;51.002;4.356;2023-12-14T06:48:02;14.13;;;9.50;;
22034;SDS011;11181;51.002;4.356;2023-12-14T06:50:29;15.47;;;9.93;;
22034;SDS011;11181;51.002;4.356;2023-12-14T06:52:56;16.57;;;10.03;;
22034;SDS011;11181;51.002;4.356;2023-12-14T06:55:26;18.57;;;9.07;;
22034;SDS011;11181;51.002;4.356;2023-12-14T06:57:54;16.33;;;8.83;;
22034;SDS011;11181;51.002;4.356;2023-12-14T07:00:21;12.63;;;8.40;;
22034;SDS011;11181;51.002;4.356;2023-12-14T07:02:48;13.90;;;8.10;;
22034;SDS011;11181;51.002;4.356;2023-12-14T07:05:15;10.77;;;7.83;;
22034;SDS011;11181;51.002;4.356;2023-12-14T07:07:42;17.50;;;8.90;;
22034;SDS011;11181;51.002;4.356;2023-12-14T07:10:09;13.77;;;8.53;;
22034;SDS011;11181;51.002;4.356;2023-12-14T07:12:36;12.50;;;9.00;;
22034;SDS011;11181;51.002;4.356;2023-12-14T07:15:04;11.57;;;7.57;;
22034;SDS011;11181;51.002;4.356;2023-12-14T07:17:32;10.43;;;7.20;;
22034;SDS011;11181;51.002;4.356;2023-12-14T07:19:59;10.23;;;7.03;;
22034;SDS011;11181;51.002;4.356;2023-12-14T07:22:26;12.37;;;7.63;;
22034;SDS011;11181;51.002;4.356;2023-12-14T07:24:53;12.70;;;8.57;;
22034;SDS011;11181;51.002;4.356;2023-12-14T07:27:20;10.07;;;7.50;;
22034;SDS011;11181;51.002;4.356;2023-12-14T07:29:47;15.03;;;8.10;;
22034;SDS011;11181;51.002;4.356;2023-12-14T07:32:15;13.83;;;8.57;;
22034;SDS011;11181;51.002;4.356;2023-12-14T07:34:42;12.93;;;9.67;;
22034;SDS011;11181;51.002;4.356;2023-12-14T07:37:09;10.13;;;7.33;;
22034;SDS011;11181;51.002;4.356;2023-12-14T07:39:36;14.97;;;8.57;;
22034;SDS011;11181;51.002;4.356;2023-12-14T07:42:04;12.00;;;7.97;;
22034;SDS011;11181;51.002;4.356;2023-12-14T07:44:31;13.07;;;8.03;;
22034;SDS011;11181;51.002;4.356;2023-12-14T07:46:59;12.07;;;7.83;;
22034;SDS011;11181;51.002;4.356;2023-12-14T07:49:27;11.87;;;7.40;;
22034;SDS011;11181;51.002;4.356;2023-12-14T07:51:54;12.43;;;7.40;;
22034;SDS011;11181;51.002;4.356;2023-12-14T07:54:21;11.77;;;7.60;;
22034;SDS011;11181;51.002;4.356;2023-12-14T07:56:51;13.47;;;7.97;;
22034;SDS011;11181;51.002;4.356;2023-12-14T07:59:18;12.20;;;7.07;;
22034;SDS011;11181;51.002;4.356;2023-12-14T08:01:45;10.77;;;6.60;;
22034;SDS011;11181;51.002;4.356;2023-12-14T08:04:11;11.10;;;7.30;;
22034;SDS011;11181;51.002;4.356;2023-12-14T08:06:40;13.73;;;7.03;;
22034;SDS011;11181;51.002;4.356;2023-12-14T08:09:07;11.30;;;7.63;;
22034;SDS011;11181;51.002;4.356;2023-12-14T08:11:34;10.00;;;7.23;;
22034;SDS011;11181;51.002;4.356;2023-12-14T08:14:01;10.47;;;6.13;;
22034;SDS011;11181;51.002;4.356;2023-12-14T08:16:28;11.40;;;7.03;;
22034;SDS011;11181;51.002;4.356;2023-12-14T08:18:55;10.93;;;6.80;;
22034;SDS011;11181;51.002;4.356;2023-12-14T08:21:22;8.90;;;6.67;;
22034;SDS011;11181;51.002;4.356;2023-12-14T08:23:50;9.40;;;6.43;;
22034;SDS011;11181;51.002;4.356;2023-12-14T08:26:17;10.20;;;5.90;;
22034;SDS011;11181;51.002;4.356;2023-12-14T08:28:44;9.67;;;6.70;;
22034;SDS011;11181;51.002;4.356;2023-12-14T08:31:10;10.63;;;6.63;;
22034;SDS011;11181;51.002;4.356;2023-12-14T08:33:38;12.53;;;6.83;;
22034;SDS011;11181;51.002;4.356;2023-12-14T08:36:07;11.73;;;6.17;;
22034;SDS011;11181;51.002;4.356;2023-12-14T08:38:34;9.90;;;6.10;;
22034;SDS011;11181;51.002;4.356;2023-12-14T08:41:03;9.33;;;5.90;;
22034;SDS011;11181;51.002;4.356;2023-12-14T08:43:30;9.40;;;5.70;;
22034;SDS011;11181;51.002;4.356;2023-12-14T08:45:57;9.77;;;6.47;;
22034;SDS011;11181;51.002;4.356;2023-12-14T08:48:24;9.17;;;5.87;;
22034;SDS011;11181;51.002;4.356;2023-12-14T08:50:52;10.77;;;6.37;;
22034;SDS011;11181;51.002;4.356;2023-12-14T08:53:20;9.77;;;5.97;;
22034;SDS011;11181;51.002;4.356;2023-12-14T08:55:47;11.97;;;6.33;;
22034;SDS011;11181;51.002;4.356;2023-12-14T08:58:15;10.00;;;6.17;;
22034;SDS011;11181;51.002;4.356;2023-12-14T09:00:42;10.53;;;6.57;;
22034;SDS011;11181;51.002;4.356;2023-12-14T09:03:09;10.03;;;6.27;;
22034;SDS011;11181;51.002;4.356;2023-12-14T09:05:36;9.73;;;6.70;;
22034;SDS011;11181;51.002;4.356;2023-12-14T09:08:07;15.63;;;6.53;;
22034;SDS011;11181;51.002;4.356;2023-12-14T09:10:33;10.20;;;6.40;;
22034;SDS011;11181;51.002;4.356;2023-12-14T09:13:04;9.77;;;6.27;;
22034;SDS011;11181;51.002;4.356;2023-12-14T09:15:32;10.27;;;6.40;;
22034;SDS011;11181;51.002;4.356;2023-12-14T09:17:59;10.40;;;5.53;;
22034;SDS011;11181;51.002;4.356;2023-12-14T09:20:26;10.00;;;6.23;;
22034;SDS011;11181;51.002;4.356;2023-12-14T09:22:53;10.67;;;5.87;;
22034;SDS011;11181;51.002;4.356;2023-12-14T09:25:20;9.67;;;6.20;;
22034;SDS011;11181;51.002;4.356;2023-12-14T09:27:47;9.30;;;5.97;;
22034;SDS011;11181;51.002;4.356;2023-12-14T09:30:14;13.03;;;6.50;;
22034;SDS011;11181;51.002;4.356;2023-12-14T09:32:44;9.80;;;5.70;;
22034;SDS011;11181;51.002;4.356;2023-12-14T09:35:10;11.30;;;5.83;;
22034;SDS011;11181;51.002;4.356;2023-12-14T09:37:37;11.23;;;5.30;;
22034;SDS011;11181;51.002;4.356;2023-12-14T09:40:06;10.67;;;5.63;;
22034;SDS011;11181;51.002;4.356;2023-12-14T09:42:36;9.10;;;5.43;;
22034;SDS011;11181;51.002;4.356;2023-12-14T09:45:06;8.80;;;4.80;;
22034;SDS011;11181;51.002;4.356;2023-12-14T09:47:34;7.60;;;4.90;;
22034;SDS011;11181;51.002;4.356;2023-12-14T09:50:02;10.03;;;5.30;;
22034;SDS011;11181;51.002;4.356;2023-12-14T09:52:30;9.03;;;5.93;;
22034;SDS011;11181;51.002;4.356;2023-12-14T09:54:58;8.67;;;5.37;;
22034;SDS011;11181;51.002;4.356;2023-12-14T09:57:25;9.47;;;5.33;;
22034;SDS011;11181;51.002;4.356;2023-12-14T09:59:52;11.13;;;4.70;;
22034;SDS011;11181;51.002;4.356;2023-12-14T10:02:19;9.50;;;5.07;;
22034;SDS011;11181;51.002;4.356;2023-12-14T10:04:46;18.80;;;14.67;;
22034;SDS011;11181;51.002;4.356;2023-12-14T10:07:15;11.47;;;6.97;;
22034;SDS011;11181;51.002;4.356;2023-12-14T10:09:42;6.97;;;5.10;;
22034;SDS011;11181;51.002;4.356;2023-12-14T10:12:09;7.83;;;5.43;;
22034;SDS011;11181;51.002;4.356;2023-12-14T10:14:36;8.17;;;4.70;;
22034;SDS011;11181;51.002;4.356;2023-12-14T10:17:17;9.53;;;5.17;;
22034;SDS011;11181;51.002;4.356;2023-12-14T10:19:45;9.93;;;5.50;;
22034;SDS011;11181;51.002;4.356;2023-12-14T10:22:15;11.50;;;5.10;;
22034;SDS011;11181;51.002;4.356;2023-12-14T10:24:43;8.37;;;4.77;;
22034;SDS011;11181;51.002;4.356;2023-12-14T10:27:10;6.90;;;4.47;;
22034;SDS011;11181;51.002;4.356;2023-12-14T10:29:37;9.73;;;5.23;;
22034;SDS011;11181;51.002;4.356;2023-12-14T10:32:06;8.43;;;4.73;;
22034;SDS011;11181;51.002;4.356;2023-12-14T10:34:35;9.00;;;4.67;;
22034;SDS011;11181;51.002;4.356;2023-12-14T10:37:04;7.37;;;4.93;;
22034;SDS011;11181;51.002;4.356;2023-12-14T10:39:33;7.20;;;3.90;;
22034;SDS011;11181;51.002;4.356;2023-12-14T10:42:02;10.00;;;4.27;;
22034;SDS011;11181;51.002;4.356;2023-12-14T10:44:30;7.03;;;4.30;;
22034;SDS011;11181;51.002;4.356;2023-12-14T10:47:01;6.70;;;3.70;;
22034;SDS011;11181;51.002;4.356;2023-12-14T10:49:30;6.80;;;4.60;;
22034;SDS011;11181;51.002;4.356;2023-12-14T10:51:59;7.67;;;4.10;;
22034;SDS011;11181;51.002;4.356;2023-12-14T10:54:27;9.53;;;5.03;;
22034;SDS011;11181;51.002;4.356;2023-12-14T10:56:59;6.30;;;3.93;;
22034;SDS011;11181;51.002;4.356;2023-12-14T10:59:26;11.13;;;4.00;;
22034;SDS011;11181;51.002;4.356;2023-12-14T11:01:53;6.73;;;3.70;;
22034;SDS011;11181;51.002;4.356;2023-12-14T11:04:22;5.30;;;3.63;;
22034;SDS011;11181;51.002;4.356;2023-12-14T11:06:49;9.93;;;4.17;;
22034;SDS011;11181;51.002;4.356;2023-12-14T11:09:19;6.67;;;3.67;;
22034;SDS011;11181;51.002;4.356;2023-12-14T11:11:54;5.63;;;3.27;;
22034;SDS011;11181;51.002;4.356;2023-12-14T11:14:24;5.20;;;2.80;;
22034;SDS011;11181;51.002;4.356;2023-12-14T11:16:54;6.37;;;3.57;;
22034;SDS011;11181;51.002;4.356;2023-12-14T11:19:24;6.37;;;3.17;;
22034;SDS011;11181;51.002;4.356;2023-12-14T11:24:53;6.67;;;3.27;;
22034;SDS011;11181;51.002;4.356;2023-12-14T11:27:25;7.97;;;3.83;;
22034;SDS011;11181;51.002;4.356;2023-12-14T11:29:55;7.27;;;3.43;;
22034;SDS011;11181;51.002;4.356;2023-12-14T11:32:23;6.70;;;4.23;;
22034;SDS011;11181;51.002;4.356;2023-12-14T11:34:51;7.17;;;3.53;;
22034;SDS011;11181;51.002;4.356;2023-12-14T11:37:18;8.93;;;3.60;;
22034;SDS011;11181;51.002;4.356;2023-12-14T11:39:49;5.80;;;3.53;;
22034;SDS011;11181;51.002;4.356;2023-12-14T11:42:16;9.60;;;3.97;;
22034;SDS011;11181;51.002;4.356;2023-12-14T11:44:45;8.90;;;3.20;;
22034;SDS011;11181;51.002;4.356;2023-12-14T11:47:13;6.47;;;3.10;;
22034;SDS011;11181;51.002;4.356;2023-12-14T11:49:40;5.53;;;3.27;;
22034;SDS011;11181;51.002;4.356;2023-12-14T11:52:07;6.77;;;3.20;;
22034;SDS011;11181;51.002;4.356;2023-12-14T11:54:34;7.57;;;3.50;;
22034;SDS011;11181;51.002;4.356;2023-12-14T11:57:03;8.73;;;3.70;;
22034;SDS011;11181;51.002;4.356;2023-12-14T11:59:34;7.50;;;4.03;;
22034;SDS011;11181;51.002;4.356;2023-12-14T12:02:01;7.93;;;4.87;;
22034;SDS011;11181;51.002;4.356;2023-12-14T12:04:30;13.37;;;5.73;;
22034;SDS011;11181;51.002;4.356;2023-12-14T12:07:00;11.10;;;5.23;;
22034;SDS011;11181;51.002;4.356;2023-12-14T12:09:33;11.17;;;5.03;;
22034;SDS011;11181;51.002;4.356;2023-12-14T12:12:06;10.73;;;6.07;;
22034;SDS011;11181;51.002;4.356;2023-12-14T12:14:34;11.07;;;5.80;;
22034;SDS011;11181;51.002;4.356;2023-12-14T12:17:02;11.53;;;5.60;;
22034;SDS011;11181;51.002;4.356;2023-12-14T12:19:32;11.53;;;5.87;;
22034;SDS011;11181;51.002;4.356;2023-12-14T12:22:00;13.03;;;7.17;;
22034;SDS011;11181;51.002;4.356;2023-12-14T12:24:27;8.43;;;5.33;;
22034;SDS011;11181;51.002;4.356;2023-12-14T12:26:54;15.10;;;5.80;;
22034;SDS011;11181;51.002;4.356;2023-12-14T12:29:21;11.30;;;5.80;;
22034;SDS011;11181;51.002;4.356;2023-12-14T12:31:48;10.97;;;6.50;;
22034;SDS011;11181;51.002;4.356;2023-12-14T12:34:15;13.07;;;6.83;;
22034;SDS011;11181;51.002;4.356;2023-12-14T12:36:43;17.00;;;7.03;;
22034;SDS011;11181;51.002;4.356;2023-12-14T12:39:10;15.07;;;6.93;;
22034;SDS011;11181;51.002;4.356;2023-12-14T12:41:37;10.80;;;6.33;;
22034;SDS011;11181;51.002;4.356;2023-12-14T12:44:04;10.63;;;7.03;;
22034;SDS011;11181;51.002;4.356;2023-12-14T12:46:33;12.73;;;6.83;;
22034;SDS011;11181;51.002;4.356;2023-12-14T12:49:00;15.13;;;7.33;;
22034;SDS011;11181;51.002;4.356;2023-12-14T12:51:27;14.37;;;7.67;;
22034;SDS011;11181;51.002;4.356;2023-12-14T12:53:56;15.03;;;6.53;;
22034;SDS011;11181;51.002;4.356;2023-12-14T12:56:25;19.00;;;6.57;;
22034;SDS011;11181;51.002;4.356;2023-12-14T12:58:53;12.30;;;7.20;;
22034;SDS011;11181;51.002;4.356;2023-12-14T13:01:20;19.00;;;7.43;;
22034;SDS011;11181;51.002;4.356;2023-12-14T13:06:22;9.30;;;6.40;;
22034;SDS011;11181;51.002;4.356;2023-12-14T13:08:49;11.63;;;6.03;;
22034;SDS011;11181;51.002;4.356;2023-12-14T13:11:18;9.83;;;5.43;;
22034;SDS011;11181;51.002;4.356;2023-12-14T13:13:45;9.10;;;6.40;;
22034;SDS011;11181;51.002;4.356;2023-12-14T13:16:12;11.03;;;6.50;;
22034;SDS011;11181;51.002;4.356;2023-12-14T13:18:41;11.57;;;6.40;;
22034;SDS011;11181;51.002;4.356;2023-12-14T13:21:09;10.57;;;6.00;;
22034;SDS011;11181;51.002;4.356;2023-12-14T13:23:36;12.80;;;5.70;;
22034;SDS011;11181;51.002;4.356;2023-12-14T13:26:03;13.77;;;5.97;;
22034;SDS011;11181;51.002;4.356;2023-12-14T13:28:31;8.47;;;4.87;;
22034;SDS011;11181;51.002;4.356;2023-12-14T13:30:58;10.43;;;5.73;;
22034;SDS011;11181;51.002;4.356;2023-12-14T13:33:25;10.17;;;5.93;;
22034;SDS011;11181;51.002;4.356;2023-12-14T13:35:52;13.00;;;6.47;;
22034;SDS011;11181;51.002;4.356;2023-12-14T13:38:20;9.83;;;5.70;;
22034;SDS011;11181;51.002;4.356;2023-12-14T13:40:46;7.00;;;4.93;;
22034;SDS011;11181;51.002;4.356;2023-12-14T13:43:13;11.10;;;5.77;;
22034;SDS011;11181;51.002;4.356;2023-12-14T13:45:42;11.20;;;4.93;;
22034;SDS011;11181;51.002;4.356;2023-12-14T13:48:09;8.60;;;4.97;;
22034;SDS011;11181;51.002;4.356;2023-12-14T13:50:36;9.30;;;5.13;;
22034;SDS011;11181;51.002;4.356;2023-12-14T13:53:03;11.77;;;5.93;;
22034;SDS011;11181;51.002;4.356;2023-12-14T13:55:30;11.27;;;5.73;;
22034;SDS011;11181;51.002;4.356;2023-12-14T13:57:57;8.47;;;4.87;;
22034;SDS011;11181;51.002;4.356;2023-12-14T14:00:25;8.37;;;5.30;;
22034;SDS011;11181;51.002;4.356;2023-12-14T14:02:54;11.40;;;5.10;;
22034;SDS011;11181;51.002;4.356;2023-12-14T14:05:21;10.73;;;5.67;;
22034;SDS011;11181;51.002;4.356;2023-12-14T14:07:48;7.07;;;5.70;;
22034;SDS011;11181;51.002;4.356;2023-12-14T14:10:15;7.57;;;5.33;;
22034;SDS011;11181;51.002;4.356;2023-12-14T14:12:42;6.97;;;4.80;;
22034;SDS011;11181;51.002;4.356;2023-12-14T14:15:10;12.57;;;5.03;;
22034;SDS011;11181;51.002;4.356;2023-12-14T14:17:36;10.93;;;5.10;;
22034;SDS011;11181;51.002;4.356;2023-12-14T14:20:05;10.13;;;5.67;;
22034;SDS011;11181;51.002;4.356;2023-12-14T14:22:34;9.10;;;5.20;;
22034;SDS011;11181;51.002;4.356;2023-12-14T14:25:02;9.93;;;5.47;;
22034;SDS011;11181;51.002;4.356;2023-12-14T14:27:31;8.37;;;5.40;;
22034;SDS011;11181;51.002;4.356;2023-12-14T14:29:58;8.87;;;5.43;;
22034;SDS011;11181;51.002;4.356;2023-12-14T14:32:25;13.63;;;6.17;;
22034;SDS011;11181;51.002;4.356;2023-12-14T14:34:52;9.07;;;5.37;;
22034;SDS011;11181;51.002;4.356;2023-12-14T14:37:23;6.43;;;5.00;;